sensor_id;sensor_type;location;lat;lon;timestamp;P1;durP1;ratioP1;P2;durP2;ratioP2
46288;SDS011;63105;46.158;14.604;2023-03-14T00:02:05;3.50;;;1.27;;
46288;SDS011;63105;46.158;14.604;2023-03-14T00:04:31;4.75;;;1.75;;
46288;SDS011;63105;46.158;14.604;2023-03-14T00:06:56;4.38;;;1.75;;
46288;SDS011;63105;46.158;14.604;2023-03-14T00:09:21;4.07;;;1.67;;
46288;SDS011;63105;46.158;14.604;2023-03-14T00:11:46;3.83;;;1.40;;
46288;SDS011;63105;46.158;14.604;2023-03-14T00:14:12;4.05;;;1.88;;
46288;SDS011;63105;46.158;14.604;2023-03-14T00:16:37;6.32;;;1.75;;
46288;SDS011;63105;46.158;14.604;2023-03-14T00:19:02;4.43;;;1.63;;
46288;SDS011;63105;46.158;14.604;2023-03-14T00:21:27;6.22;;;2.20;;
46288;SDS011;63105;46.158;14.604;2023-03-14T00:23:53;4.28;;;1.85;;
46288;SDS011;63105;46.158;14.604;2023-03-14T00:26:19;4.97;;;1.80;;
46288;SDS011;63105;46.158;14.604;2023-03-14T00:28:45;4.28;;;1.50;;
46288;SDS011;63105;46.158;14.604;2023-03-14T00:31:11;4.68;;;1.77;;
46288;SDS011;63105;46.158;14.604;2023-03-14T00:33:36;4.63;;;1.50;;
46288;SDS011;63105;46.158;14.604;2023-03-14T00:36:03;3.35;;;1.60;;
46288;SDS011;63105;46.158;14.604;2023-03-14T00:38:29;3.72;;;1.60;;
46288;SDS011;63105;46.158;14.604;2023-03-14T00:40:55;4.70;;;1.83;;
46288;SDS011;63105;46.158;14.604;2023-03-14T00:43:20;4.65;;;1.60;;
46288;SDS011;63105;46.158;14.604;2023-03-14T00:45:49;4.50;;;1.73;;
46288;SDS011;63105;46.158;14.604;2023-03-14T00:48:15;4.53;;;1.80;;
46288;SDS011;63105;46.158;14.604;2023-03-14T00:50:40;4.60;;;1.58;;
46288;SDS011;63105;46.158;14.604;2023-03-14T00:53:05;3.97;;;1.60;;
46288;SDS011;63105;46.158;14.604;2023-03-14T00:55:31;4.65;;;1.67;;
46288;SDS011;63105;46.158;14.604;2023-03-14T00:57:56;4.80;;;1.70;;
46288;SDS011;63105;46.158;14.604;2023-03-14T01:00:21;3.72;;;1.70;;
46288;SDS011;63105;46.158;14.604;2023-03-14T01:02:46;4.63;;;1.45;;
46288;SDS011;63105;46.158;14.604;2023-03-14T01:05:11;5.00;;;1.63;;
46288;SDS011;63105;46.158;14.604;2023-03-14T01:07:37;4.32;;;1.60;;
46288;SDS011;63105;46.158;14.604;2023-03-14T01:10:03;3.25;;;1.50;;
46288;SDS011;63105;46.158;14.604;2023-03-14T01:12:28;3.97;;;1.60;;
46288;SDS011;63105;46.158;14.604;2023-03-14T01:14:53;4.53;;;1.40;;
46288;SDS011;63105;46.158;14.604;2023-03-14T01:17:18;6.57;;;1.50;;
46288;SDS011;63105;46.158;14.604;2023-03-14T01:19:44;5.30;;;1.80;;
46288;SDS011;63105;46.158;14.604;2023-03-14T01:22:09;4.00;;;1.40;;
46288;SDS011;63105;46.158;14.604;2023-03-14T01:24:34;3.47;;;1.42;;
46288;SDS011;63105;46.158;14.604;2023-03-14T01:27:01;3.42;;;1.42;;
46288;SDS011;63105;46.158;14.604;2023-03-14T01:29:26;4.00;;;1.30;;
46288;SDS011;63105;46.158;14.604;2023-03-14T01:31:51;4.60;;;1.50;;
46288;SDS011;63105;46.158;14.604;2023-03-14T01:34:17;5.07;;;1.60;;
46288;SDS011;63105;46.158;14.604;2023-03-14T01:36:42;4.20;;;1.58;;
46288;SDS011;63105;46.158;14.604;2023-03-14T01:39:07;4.07;;;1.50;;
46288;SDS011;63105;46.158;14.604;2023-03-14T01:41:33;4.47;;;1.65;;
46288;SDS011;63105;46.158;14.604;2023-03-14T01:43:59;3.28;;;1.42;;
46288;SDS011;63105;46.158;14.604;2023-03-14T01:46:43;3.85;;;1.33;;
46288;SDS011;63105;46.158;14.604;2023-03-14T01:49:10;3.28;;;1.48;;
46288;SDS011;63105;46.158;14.604;2023-03-14T01:54:04;3.03;;;1.30;;
46288;SDS011;63105;46.158;14.604;2023-03-14T01:56:30;5.60;;;1.50;;
46288;SDS011;63105;46.158;14.604;2023-03-14T01:58:55;5.82;;;1.50;;
46288;SDS011;63105;46.158;14.604;2023-03-14T02:01:21;4.22;;;1.52;;
46288;SDS011;63105;46.158;14.604;2023-03-14T02:03:58;3.55;;;1.30;;
46288;SDS011;63105;46.158;14.604;2023-03-14T02:06:25;3.42;;;1.50;;
46288;SDS011;63105;46.158;14.604;2023-03-14T02:08:51;5.57;;;1.60;;
46288;SDS011;63105;46.158;14.604;2023-03-14T02:11:17;3.63;;;1.38;;
46288;SDS011;63105;46.158;14.604;2023-03-14T02:13:43;4.55;;;1.60;;
46288;SDS011;63105;46.158;14.604;2023-03-14T02:16:08;4.00;;;1.40;;
46288;SDS011;63105;46.158;14.604;2023-03-14T02:18:33;3.72;;;1.45;;
46288;SDS011;63105;46.158;14.604;2023-03-14T02:21:00;3.03;;;1.38;;
46288;SDS011;63105;46.158;14.604;2023-03-14T02:25:57;4.30;;;1.40;;
46288;SDS011;63105;46.158;14.604;2023-03-14T02:28:24;3.67;;;1.40;;
46288;SDS011;63105;46.158;14.604;2023-03-14T02:30:50;4.03;;;1.45;;
46288;SDS011;63105;46.158;14.604;2023-03-14T02:33:16;4.03;;;1.20;;
46288;SDS011;63105;46.158;14.604;2023-03-14T02:35:43;3.83;;;1.35;;
46288;SDS011;63105;46.158;14.604;2023-03-14T02:38:13;3.20;;;1.38;;
46288;SDS011;63105;46.158;14.604;2023-03-14T02:40:40;4.97;;;2.03;;
46288;SDS011;63105;46.158;14.604;2023-03-14T02:43:05;4.38;;;1.98;;
46288;SDS011;63105;46.158;14.604;2023-03-14T02:48:00;5.28;;;2.10;;
46288;SDS011;63105;46.158;14.604;2023-03-14T02:50:28;4.68;;;1.63;;
46288;SDS011;63105;46.158;14.604;2023-03-14T02:52:54;3.22;;;1.48;;
46288;SDS011;63105;46.158;14.604;2023-03-14T02:55:20;4.28;;;1.40;;
46288;SDS011;63105;46.158;14.604;2023-03-14T02:57:45;3.20;;;1.48;;
46288;SDS011;63105;46.158;14.604;2023-03-14T03:00:11;4.50;;;1.38;;
46288;SDS011;63105;46.158;14.604;2023-03-14T03:02:36;4.43;;;1.70;;
46288;SDS011;63105;46.158;14.604;2023-03-14T03:05:01;2.97;;;1.20;;
46288;SDS011;63105;46.158;14.604;2023-03-14T03:07:27;3.95;;;1.45;;
46288;SDS011;63105;46.158;14.604;2023-03-14T03:09:52;2.83;;;1.30;;
46288;SDS011;63105;46.158;14.604;2023-03-14T03:12:17;5.20;;;2.20;;
46288;SDS011;63105;46.158;14.604;2023-03-14T03:14:42;6.30;;;2.70;;
46288;SDS011;63105;46.158;14.604;2023-03-14T03:17:07;5.82;;;2.35;;
46288;SDS011;63105;46.158;14.604;2023-03-14T03:19:33;5.78;;;2.30;;
46288;SDS011;63105;46.158;14.604;2023-03-14T03:21:59;4.97;;;1.92;;
46288;SDS011;63105;46.158;14.604;2023-03-14T03:24:24;4.03;;;1.73;;
46288;SDS011;63105;46.158;14.604;2023-03-14T03:26:49;5.78;;;1.90;;
46288;SDS011;63105;46.158;14.604;2023-03-14T03:29:15;5.05;;;1.70;;
46288;SDS011;63105;46.158;14.604;2023-03-14T03:31:40;3.75;;;1.63;;
46288;SDS011;63105;46.158;14.604;2023-03-14T03:34:06;3.95;;;1.50;;
46288;SDS011;63105;46.158;14.604;2023-03-14T03:36:31;4.15;;;1.67;;
46288;SDS011;63105;46.158;14.604;2023-03-14T03:38:56;4.28;;;1.70;;
46288;SDS011;63105;46.158;14.604;2023-03-14T03:41:21;3.05;;;1.60;;
46288;SDS011;63105;46.158;14.604;2023-03-14T03:43:47;2.75;;;1.40;;
46288;SDS011;63105;46.158;14.604;2023-03-14T03:46:12;2.90;;;1.30;;
46288;SDS011;63105;46.158;14.604;2023-03-14T03:48:37;5.00;;;1.60;;
46288;SDS011;63105;46.158;14.604;2023-03-14T03:51:03;5.20;;;1.83;;
46288;SDS011;63105;46.158;14.604;2023-03-14T03:53:28;3.42;;;1.50;;
46288;SDS011;63105;46.158;14.604;2023-03-14T03:55:53;5.00;;;1.70;;
46288;SDS011;63105;46.158;14.604;2023-03-14T03:58:19;4.03;;;1.70;;
46288;SDS011;63105;46.158;14.604;2023-03-14T04:00:44;3.92;;;1.92;;
46288;SDS011;63105;46.158;14.604;2023-03-14T04:03:09;4.90;;;2.30;;
46288;SDS011;63105;46.158;14.604;2023-03-14T04:05:35;4.72;;;2.20;;
46288;SDS011;63105;46.158;14.604;2023-03-14T04:08:00;3.97;;;2.20;;
46288;SDS011;63105;46.158;14.604;2023-03-14T04:10:26;5.00;;;2.15;;
46288;SDS011;63105;46.158;14.604;2023-03-14T04:12:51;4.90;;;2.58;;
46288;SDS011;63105;46.158;14.604;2023-03-14T04:15:17;5.05;;;1.80;;
46288;SDS011;63105;46.158;14.604;2023-03-14T04:17:42;4.07;;;1.92;;
46288;SDS011;63105;46.158;14.604;2023-03-14T04:20:07;3.70;;;1.80;;
46288;SDS011;63105;46.158;14.604;2023-03-14T04:22:36;6.22;;;2.00;;
46288;SDS011;63105;46.158;14.604;2023-03-14T04:25:02;4.60;;;2.10;;
46288;SDS011;63105;46.158;14.604;2023-03-14T04:27:28;3.92;;;1.83;;
46288;SDS011;63105;46.158;14.604;2023-03-14T04:29:53;4.80;;;1.83;;
46288;SDS011;63105;46.158;14.604;2023-03-14T04:32:18;4.25;;;1.90;;
46288;SDS011;63105;46.158;14.604;2023-03-14T04:34:44;4.72;;;1.95;;
46288;SDS011;63105;46.158;14.604;2023-03-14T04:37:09;5.03;;;2.20;;
46288;SDS011;63105;46.158;14.604;2023-03-14T04:39:34;5.53;;;2.50;;
46288;SDS011;63105;46.158;14.604;2023-03-14T04:41:59;4.95;;;2.42;;
46288;SDS011;63105;46.158;14.604;2023-03-14T04:44:25;6.05;;;3.03;;
46288;SDS011;63105;46.158;14.604;2023-03-14T04:46:50;4.43;;;2.50;;
46288;SDS011;63105;46.158;14.604;2023-03-14T04:49:15;6.35;;;2.35;;
46288;SDS011;63105;46.158;14.604;2023-03-14T04:51:40;4.75;;;1.85;;
46288;SDS011;63105;46.158;14.604;2023-03-14T04:54:06;3.95;;;1.80;;
46288;SDS011;63105;46.158;14.604;2023-03-14T04:56:31;3.75;;;1.70;;
46288;SDS011;63105;46.158;14.604;2023-03-14T04:58:56;3.25;;;1.65;;
46288;SDS011;63105;46.158;14.604;2023-03-14T05:01:21;3.85;;;1.67;;
46288;SDS011;63105;46.158;14.604;2023-03-14T05:03:46;3.22;;;1.45;;
46288;SDS011;63105;46.158;14.604;2023-03-14T05:06:12;4.28;;;1.73;;
46288;SDS011;63105;46.158;14.604;2023-03-14T05:08:37;3.97;;;1.70;;
46288;SDS011;63105;46.158;14.604;2023-03-14T05:11:02;3.30;;;1.40;;
46288;SDS011;63105;46.158;14.604;2023-03-14T05:13:28;4.25;;;1.67;;
46288;SDS011;63105;46.158;14.604;2023-03-14T05:15:53;3.72;;;1.50;;
46288;SDS011;63105;46.158;14.604;2023-03-14T05:18:20;4.05;;;1.30;;
46288;SDS011;63105;46.158;14.604;2023-03-14T05:20:45;4.32;;;1.40;;
46288;SDS011;63105;46.158;14.604;2023-03-14T05:23:10;4.05;;;1.58;;
46288;SDS011;63105;46.158;14.604;2023-03-14T05:25:36;5.03;;;1.63;;
46288;SDS011;63105;46.158;14.604;2023-03-14T05:28:01;3.65;;;1.60;;
46288;SDS011;63105;46.158;14.604;2023-03-14T05:30:26;3.25;;;1.33;;
46288;SDS011;63105;46.158;14.604;2023-03-14T05:32:53;4.07;;;1.67;;
46288;SDS011;63105;46.158;14.604;2023-03-14T05:35:18;3.53;;;1.30;;
46288;SDS011;63105;46.158;14.604;2023-03-14T05:37:43;4.95;;;1.40;;
46288;SDS011;63105;46.158;14.604;2023-03-14T05:40:09;4.28;;;1.42;;
46288;SDS011;63105;46.158;14.604;2023-03-14T05:42:34;2.78;;;1.20;;
46288;SDS011;63105;46.158;14.604;2023-03-14T05:44:59;4.43;;;1.38;;
46288;SDS011;63105;46.158;14.604;2023-03-14T05:47:25;3.25;;;1.40;;
46288;SDS011;63105;46.158;14.604;2023-03-14T05:49:50;3.10;;;1.20;;
46288;SDS011;63105;46.158;14.604;2023-03-14T05:52:16;3.40;;;1.23;;
46288;SDS011;63105;46.158;14.604;2023-03-14T05:54:41;3.30;;;1.15;;
46288;SDS011;63105;46.158;14.604;2023-03-14T05:57:06;4.53;;;1.70;;
46288;SDS011;63105;46.158;14.604;2023-03-14T05:59:32;3.75;;;1.33;;
46288;SDS011;63105;46.158;14.604;2023-03-14T06:01:57;5.28;;;1.60;;
46288;SDS011;63105;46.158;14.604;2023-03-14T06:04:22;5.15;;;1.33;;
46288;SDS011;63105;46.158;14.604;2023-03-14T06:06:47;5.10;;;1.58;;
46288;SDS011;63105;46.158;14.604;2023-03-14T06:09:13;3.38;;;1.40;;
46288;SDS011;63105;46.158;14.604;2023-03-14T06:11:38;4.65;;;1.60;;
46288;SDS011;63105;46.158;14.604;2023-03-14T06:14:04;5.20;;;1.65;;
46288;SDS011;63105;46.158;14.604;2023-03-14T06:16:29;4.30;;;1.65;;
46288;SDS011;63105;46.158;14.604;2023-03-14T06:18:56;5.78;;;1.60;;
46288;SDS011;63105;46.158;14.604;2023-03-14T06:21:22;4.18;;;1.73;;
46288;SDS011;63105;46.158;14.604;2023-03-14T06:23:47;4.30;;;1.70;;
46288;SDS011;63105;46.158;14.604;2023-03-14T06:26:12;4.50;;;1.45;;
46288;SDS011;63105;46.158;14.604;2023-03-14T06:28:38;4.63;;;1.50;;
46288;SDS011;63105;46.158;14.604;2023-03-14T06:31:03;4.80;;;1.40;;
46288;SDS011;63105;46.158;14.604;2023-03-14T06:33:29;3.40;;;1.40;;
46288;SDS011;63105;46.158;14.604;2023-03-14T06:35:54;4.78;;;1.90;;
46288;SDS011;63105;46.158;14.604;2023-03-14T06:38:19;5.10;;;1.70;;
46288;SDS011;63105;46.158;14.604;2023-03-14T06:40:45;5.00;;;1.90;;
46288;SDS011;63105;46.158;14.604;2023-03-14T06:43:10;5.50;;;1.65;;
46288;SDS011;63105;46.158;14.604;2023-03-14T06:45:35;4.78;;;1.60;;
46288;SDS011;63105;46.158;14.604;2023-03-14T06:48:01;5.82;;;1.88;;
46288;SDS011;63105;46.158;14.604;2023-03-14T06:50:26;5.88;;;2.40;;
46288;SDS011;63105;46.158;14.604;2023-03-14T06:52:52;12.45;;;7.20;;
46288;SDS011;63105;46.158;14.604;2023-03-14T06:55:17;17.23;;;11.40;;
46288;SDS011;63105;46.158;14.604;2023-03-14T06:57:42;14.23;;;9.25;;
46288;SDS011;63105;46.158;14.604;2023-03-14T07:00:09;9.02;;;5.45;;
46288;SDS011;63105;46.158;14.604;2023-03-14T07:02:34;8.18;;;3.65;;
46288;SDS011;63105;46.158;14.604;2023-03-14T07:05:00;8.13;;;3.03;;
46288;SDS011;63105;46.158;14.604;2023-03-14T07:07:25;6.22;;;2.70;;
46288;SDS011;63105;46.158;14.604;2023-03-14T07:09:51;7.50;;;3.22;;
46288;SDS011;63105;46.158;14.604;2023-03-14T07:12:16;8.50;;;4.10;;
46288;SDS011;63105;46.158;14.604;2023-03-14T07:14:41;9.40;;;4.38;;
46288;SDS011;63105;46.158;14.604;2023-03-14T07:17:06;6.82;;;3.78;;
46288;SDS011;63105;46.158;14.604;2023-03-14T07:19:32;6.18;;;3.17;;
46288;SDS011;63105;46.158;14.604;2023-03-14T07:21:57;6.03;;;2.83;;
46288;SDS011;63105;46.158;14.604;2023-03-14T07:24:22;5.80;;;2.50;;
46288;SDS011;63105;46.158;14.604;2023-03-14T07:26:47;6.80;;;2.72;;
46288;SDS011;63105;46.158;14.604;2023-03-14T07:29:13;8.02;;;3.83;;
46288;SDS011;63105;46.158;14.604;2023-03-14T07:31:38;22.02;;;11.15;;
46288;SDS011;63105;46.158;14.604;2023-03-14T07:34:03;20.13;;;11.13;;
46288;SDS011;63105;46.158;14.604;2023-03-14T07:36:28;21.67;;;12.60;;
46288;SDS011;63105;46.158;14.604;2023-03-14T07:38:54;17.77;;;10.18;;
46288;SDS011;63105;46.158;14.604;2023-03-14T07:41:19;11.75;;;7.22;;
46288;SDS011;63105;46.158;14.604;2023-03-14T07:43:45;8.95;;;3.78;;
46288;SDS011;63105;46.158;14.604;2023-03-14T07:46:11;6.43;;;3.03;;
46288;SDS011;63105;46.158;14.604;2023-03-14T07:48:36;7.32;;;3.53;;
46288;SDS011;63105;46.158;14.604;2023-03-14T07:51:01;6.30;;;2.60;;
46288;SDS011;63105;46.158;14.604;2023-03-14T07:53:26;7.35;;;2.83;;
46288;SDS011;63105;46.158;14.604;2023-03-14T07:55:52;6.53;;;2.90;;
46288;SDS011;63105;46.158;14.604;2023-03-14T07:58:17;7.15;;;3.28;;
46288;SDS011;63105;46.158;14.604;2023-03-14T08:00:43;7.20;;;2.50;;
46288;SDS011;63105;46.158;14.604;2023-03-14T08:03:08;5.53;;;2.53;;
46288;SDS011;63105;46.158;14.604;2023-03-14T08:05:34;6.85;;;2.20;;
46288;SDS011;63105;46.158;14.604;2023-03-14T08:07:59;8.75;;;4.10;;
46288;SDS011;63105;46.158;14.604;2023-03-14T08:10:25;6.65;;;3.40;;
46288;SDS011;63105;46.158;14.604;2023-03-14T08:12:59;8.85;;;4.55;;
46288;SDS011;63105;46.158;14.604;2023-03-14T08:15:25;9.10;;;3.40;;
46288;SDS011;63105;46.158;14.604;2023-03-14T08:17:50;8.10;;;3.33;;
46288;SDS011;63105;46.158;14.604;2023-03-14T08:20:23;7.78;;;2.80;;
46288;SDS011;63105;46.158;14.604;2023-03-14T08:22:49;5.90;;;2.47;;
46288;SDS011;63105;46.158;14.604;2023-03-14T08:25:14;6.22;;;2.17;;
46288;SDS011;63105;46.158;14.604;2023-03-14T08:27:40;7.32;;;2.88;;
46288;SDS011;63105;46.158;14.604;2023-03-14T08:30:07;8.23;;;2.17;;
46288;SDS011;63105;46.158;14.604;2023-03-14T08:32:32;4.57;;;2.00;;
46288;SDS011;63105;46.158;14.604;2023-03-14T08:34:58;8.07;;;3.92;;
46288;SDS011;63105;46.158;14.604;2023-03-14T08:37:23;6.85;;;3.15;;
46288;SDS011;63105;46.158;14.604;2023-03-14T08:39:50;5.50;;;2.20;;
46288;SDS011;63105;46.158;14.604;2023-03-14T08:42:15;5.47;;;2.05;;
46288;SDS011;63105;46.158;14.604;2023-03-14T08:44:40;5.35;;;2.30;;
46288;SDS011;63105;46.158;14.604;2023-03-14T08:47:05;5.30;;;1.88;;
46288;SDS011;63105;46.158;14.604;2023-03-14T08:49:31;4.43;;;1.75;;
46288;SDS011;63105;46.158;14.604;2023-03-14T08:51:56;6.53;;;1.60;;
46288;SDS011;63105;46.158;14.604;2023-03-14T08:54:21;4.82;;;1.48;;
46288;SDS011;63105;46.158;14.604;2023-03-14T08:56:46;4.63;;;1.70;;
46288;SDS011;63105;46.158;14.604;2023-03-14T08:59:11;6.35;;;2.65;;
46288;SDS011;63105;46.158;14.604;2023-03-14T09:01:37;6.70;;;2.53;;
46288;SDS011;63105;46.158;14.604;2023-03-14T09:04:02;4.88;;;1.98;;
46288;SDS011;63105;46.158;14.604;2023-03-14T09:06:27;6.10;;;1.80;;
46288;SDS011;63105;46.158;14.604;2023-03-14T09:08:52;4.47;;;1.52;;
46288;SDS011;63105;46.158;14.604;2023-03-14T09:11:18;4.47;;;1.98;;
46288;SDS011;63105;46.158;14.604;2023-03-14T09:13:43;15.93;;;7.20;;
46288;SDS011;63105;46.158;14.604;2023-03-14T09:16:09;9.88;;;4.68;;
46288;SDS011;63105;46.158;14.604;2023-03-14T09:18:34;5.88;;;2.72;;
46288;SDS011;63105;46.158;14.604;2023-03-14T09:20:59;7.28;;;2.40;;
46288;SDS011;63105;46.158;14.604;2023-03-14T09:23:25;7.53;;;3.20;;
46288;SDS011;63105;46.158;14.604;2023-03-14T09:25:59;10.95;;;4.22;;
46288;SDS011;63105;46.158;14.604;2023-03-14T09:28:25;7.87;;;3.40;;
46288;SDS011;63105;46.158;14.604;2023-03-14T09:30:50;7.43;;;3.15;;
46288;SDS011;63105;46.158;14.604;2023-03-14T09:33:16;6.70;;;2.42;;
46288;SDS011;63105;46.158;14.604;2023-03-14T09:35:41;8.68;;;3.17;;
46288;SDS011;63105;46.158;14.604;2023-03-14T09:38:07;14.82;;;7.50;;
46288;SDS011;63105;46.158;14.604;2023-03-14T09:40:36;10.65;;;5.43;;
46288;SDS011;63105;46.158;14.604;2023-03-14T09:43:01;9.65;;;3.47;;
46288;SDS011;63105;46.158;14.604;2023-03-14T09:47:55;7.03;;;2.20;;
46288;SDS011;63105;46.158;14.604;2023-03-14T09:50:21;6.53;;;2.75;;
46288;SDS011;63105;46.158;14.604;2023-03-14T09:52:49;6.78;;;2.28;;
46288;SDS011;63105;46.158;14.604;2023-03-14T09:55:16;6.82;;;2.10;;
46288;SDS011;63105;46.158;14.604;2023-03-14T09:57:42;6.45;;;1.80;;
46288;SDS011;63105;46.158;14.604;2023-03-14T10:00:16;4.40;;;1.55;;
46288;SDS011;63105;46.158;14.604;2023-03-14T10:02:43;6.15;;;1.48;;
46288;SDS011;63105;46.158;14.604;2023-03-14T10:05:15;5.68;;;1.52;;
46288;SDS011;63105;46.158;14.604;2023-03-14T10:07:40;6.70;;;1.90;;
46288;SDS011;63105;46.158;14.604;2023-03-14T10:10:22;3.83;;;1.50;;
46288;SDS011;63105;46.158;14.604;2023-03-14T10:12:55;5.47;;;1.60;;
46288;SDS011;63105;46.158;14.604;2023-03-14T10:15:31;5.60;;;1.30;;
46288;SDS011;63105;46.158;14.604;2023-03-14T10:17:58;5.78;;;1.50;;
46288;SDS011;63105;46.158;14.604;2023-03-14T10:22:58;6.35;;;2.80;;
46288;SDS011;63105;46.158;14.604;2023-03-14T10:25:28;4.32;;;1.77;;
46288;SDS011;63105;46.158;14.604;2023-03-14T10:27:54;3.53;;;1.30;;
46288;SDS011;63105;46.158;14.604;2023-03-14T10:33:28;5.13;;;1.60;;
46288;SDS011;63105;46.158;14.604;2023-03-14T10:36:00;3.70;;;1.20;;
46288;SDS011;63105;46.158;14.604;2023-03-14T10:38:27;4.43;;;1.20;;
46288;SDS011;63105;46.158;14.604;2023-03-14T10:40:53;4.10;;;1.42;;
46288;SDS011;63105;46.158;14.604;2023-03-14T10:43:19;4.03;;;1.50;;
46288;SDS011;63105;46.158;14.604;2023-03-14T10:45:56;4.32;;;1.40;;
46288;SDS011;63105;46.158;14.604;2023-03-14T10:53:19;3.53;;;1.50;;
46288;SDS011;63105;46.158;14.604;2023-03-14T10:55:45;4.60;;;1.60;;
46288;SDS011;63105;46.158;14.604;2023-03-14T10:58:27;2.75;;;1.30;;
46288;SDS011;63105;46.158;14.604;2023-03-14T11:00:55;4.97;;;1.40;;
46288;SDS011;63105;46.158;14.604;2023-03-14T11:03:23;4.93;;;1.30;;
46288;SDS011;63105;46.158;14.604;2023-03-14T11:08:35;3.60;;;1.13;;
46288;SDS011;63105;46.158;14.604;2023-03-14T11:19:52;4.15;;;1.40;;
46288;SDS011;63105;46.158;14.604;2023-03-14T11:25:12;4.55;;;1.85;;
46288;SDS011;63105;46.158;14.604;2023-03-14T11:27:46;4.35;;;1.60;;
46288;SDS011;63105;46.158;14.604;2023-03-14T11:30:17;5.05;;;1.83;;
46288;SDS011;63105;46.158;14.604;2023-03-14T11:35:20;5.13;;;2.05;;
46288;SDS011;63105;46.158;14.604;2023-03-14T11:37:51;7.82;;;3.03;;
46288;SDS011;63105;46.158;14.604;2023-03-14T11:40:18;7.28;;;2.80;;
46288;SDS011;63105;46.158;14.604;2023-03-14T11:42:46;7.75;;;3.60;;
46288;SDS011;63105;46.158;14.604;2023-03-14T11:45:24;7.45;;;2.97;;
46288;SDS011;63105;46.158;14.604;2023-03-14T11:48:05;6.00;;;2.45;;
46288;SDS011;63105;46.158;14.604;2023-03-14T11:50:32;7.88;;;3.03;;
46288;SDS011;63105;46.158;14.604;2023-03-14T11:55:34;7.47;;;2.72;;
46288;SDS011;63105;46.158;14.604;2023-03-14T11:58:01;8.15;;;3.55;;
46288;SDS011;63105;46.158;14.604;2023-03-14T12:00:28;8.82;;;4.10;;
46288;SDS011;63105;46.158;14.604;2023-03-14T12:03:11;9.52;;;3.90;;
46288;SDS011;63105;46.158;14.604;2023-03-14T12:05:42;7.03;;;3.63;;
46288;SDS011;63105;46.158;14.604;2023-03-14T12:13:36;8.82;;;4.00;;
46288;SDS011;63105;46.158;14.604;2023-03-14T12:16:06;7.07;;;3.72;;
46288;SDS011;63105;46.158;14.604;2023-03-14T12:18:33;7.22;;;4.05;;
46288;SDS011;63105;46.158;14.604;2023-03-14T12:21:07;9.65;;;4.43;;
46288;SDS011;63105;46.158;14.604;2023-03-14T12:23:48;8.32;;;3.40;;
46288;SDS011;63105;46.158;14.604;2023-03-14T12:26:17;5.63;;;2.55;;
46288;SDS011;63105;46.158;14.604;2023-03-14T12:28:44;5.13;;;2.33;;
46288;SDS011;63105;46.158;14.604;2023-03-14T12:39:19;8.40;;;3.47;;
46288;SDS011;63105;46.158;14.604;2023-03-14T12:41:51;7.45;;;3.30;;
46288;SDS011;63105;46.158;14.604;2023-03-14T12:46:54;6.53;;;2.50;;
46288;SDS011;63105;46.158;14.604;2023-03-14T12:49:20;5.45;;;2.30;;
46288;SDS011;63105;46.158;14.604;2023-03-14T12:51:46;3.78;;;1.98;;
46288;SDS011;63105;46.158;14.604;2023-03-14T12:57:00;6.38;;;2.90;;
46288;SDS011;63105;46.158;14.604;2023-03-14T12:59:30;5.72;;;2.95;;
46288;SDS011;63105;46.158;14.604;2023-03-14T13:04:32;6.18;;;2.47;;
46288;SDS011;63105;46.158;14.604;2023-03-14T13:06:59;5.57;;;2.70;;
46288;SDS011;63105;46.158;14.604;2023-03-14T13:11:54;6.18;;;3.38;;
46288;SDS011;63105;46.158;14.604;2023-03-14T13:14:20;8.95;;;4.10;;
46288;SDS011;63105;46.158;14.604;2023-03-14T13:16:46;7.78;;;3.20;;
46288;SDS011;63105;46.158;14.604;2023-03-14T13:19:15;5.25;;;2.72;;
46288;SDS011;63105;46.158;14.604;2023-03-14T13:21:42;8.43;;;2.92;;
46288;SDS011;63105;46.158;14.604;2023-03-14T13:24:20;7.70;;;2.90;;
46288;SDS011;63105;46.158;14.604;2023-03-14T13:26:45;4.68;;;2.50;;
46288;SDS011;63105;46.158;14.604;2023-03-14T13:29:17;7.53;;;3.70;;
46288;SDS011;63105;46.158;14.604;2023-03-14T13:31:48;10.82;;;4.78;;
46288;SDS011;63105;46.158;14.604;2023-03-14T13:34:13;7.28;;;3.63;;
46288;SDS011;63105;46.158;14.604;2023-03-14T13:36:39;5.72;;;2.30;;
46288;SDS011;63105;46.158;14.604;2023-03-14T13:39:06;5.47;;;2.50;;
46288;SDS011;63105;46.158;14.604;2023-03-14T13:41:34;7.40;;;2.92;;
46288;SDS011;63105;46.158;14.604;2023-03-14T13:44:05;5.72;;;2.50;;
46288;SDS011;63105;46.158;14.604;2023-03-14T13:46:32;6.30;;;3.13;;
46288;SDS011;63105;46.158;14.604;2023-03-14T13:48:58;6.13;;;3.20;;
46288;SDS011;63105;46.158;14.604;2023-03-14T13:51:25;6.57;;;2.70;;
46288;SDS011;63105;46.158;14.604;2023-03-14T13:53:53;7.30;;;3.47;;
46288;SDS011;63105;46.158;14.604;2023-03-14T13:56:23;7.43;;;4.13;;
46288;SDS011;63105;46.158;14.604;2023-03-14T13:58:49;8.43;;;3.95;;
46288;SDS011;63105;46.158;14.604;2023-03-14T14:03:47;6.43;;;3.60;;
46288;SDS011;63105;46.158;14.604;2023-03-14T14:08:52;10.75;;;4.53;;
46288;SDS011;63105;46.158;14.604;2023-03-14T14:11:20;8.30;;;4.38;;
46288;SDS011;63105;46.158;14.604;2023-03-14T14:13:46;7.40;;;3.90;;
46288;SDS011;63105;46.158;14.604;2023-03-14T14:16:12;5.65;;;3.42;;
46288;SDS011;63105;46.158;14.604;2023-03-14T14:18:37;5.80;;;3.17;;
46288;SDS011;63105;46.158;14.604;2023-03-14T14:21:03;6.57;;;3.17;;
46288;SDS011;63105;46.158;14.604;2023-03-14T14:23:28;7.63;;;3.83;;
46288;SDS011;63105;46.158;14.604;2023-03-14T14:25:55;5.45;;;3.22;;
46288;SDS011;63105;46.158;14.604;2023-03-14T14:28:28;6.50;;;3.22;;
46288;SDS011;63105;46.158;14.604;2023-03-14T14:33:25;6.43;;;3.00;;
46288;SDS011;63105;46.158;14.604;2023-03-14T14:35:51;7.60;;;3.65;;
46288;SDS011;63105;46.158;14.604;2023-03-14T14:38:17;8.15;;;3.58;;
46288;SDS011;63105;46.158;14.604;2023-03-14T14:40:45;6.60;;;3.38;;
46288;SDS011;63105;46.158;14.604;2023-03-14T14:46:06;7.32;;;3.92;;
46288;SDS011;63105;46.158;14.604;2023-03-14T14:48:35;7.55;;;3.80;;
46288;SDS011;63105;46.158;14.604;2023-03-14T14:51:02;9.40;;;4.80;;
46288;SDS011;63105;46.158;14.604;2023-03-14T14:53:35;10.43;;;5.95;;
46288;SDS011;63105;46.158;14.604;2023-03-14T14:56:04;11.18;;;5.88;;
46288;SDS011;63105;46.158;14.604;2023-03-14T14:58:33;12.90;;;7.15;;
46288;SDS011;63105;46.158;14.604;2023-03-14T15:01:02;14.30;;;7.80;;
46288;SDS011;63105;46.158;14.604;2023-03-14T15:03:29;20.83;;;11.80;;
46288;SDS011;63105;46.158;14.604;2023-03-14T15:05:55;27.55;;;15.32;;
46288;SDS011;63105;46.158;14.604;2023-03-14T15:08:20;30.77;;;17.77;;
46288;SDS011;63105;46.158;14.604;2023-03-14T15:10:46;33.03;;;18.88;;
46288;SDS011;63105;46.158;14.604;2023-03-14T15:13:11;27.95;;;15.73;;
46288;SDS011;63105;46.158;14.604;2023-03-14T15:15:36;24.75;;;14.25;;
46288;SDS011;63105;46.158;14.604;2023-03-14T15:18:04;18.63;;;11.55;;
46288;SDS011;63105;46.158;14.604;2023-03-14T15:20:36;15.77;;;9.43;;
46288;SDS011;63105;46.158;14.604;2023-03-14T15:23:01;16.95;;;9.90;;
46288;SDS011;63105;46.158;14.604;2023-03-14T15:25:26;18.15;;;9.20;;
46288;SDS011;63105;46.158;14.604;2023-03-14T15:27:52;14.63;;;7.97;;
46288;SDS011;63105;46.158;14.604;2023-03-14T15:30:17;20.95;;;14.30;;
46288;SDS011;63105;46.158;14.604;2023-03-14T15:32:43;14.82;;;8.00;;
46288;SDS011;63105;46.158;14.604;2023-03-14T15:35:09;12.63;;;6.90;;
46288;SDS011;63105;46.158;14.604;2023-03-14T15:37:34;14.63;;;7.95;;
46288;SDS011;63105;46.158;14.604;2023-03-14T15:40:00;15.93;;;8.80;;
46288;SDS011;63105;46.158;14.604;2023-03-14T15:42:28;23.38;;;13.57;;
46288;SDS011;63105;46.158;14.604;2023-03-14T15:44:53;30.67;;;17.90;;